Santa Catarina, Texas
Current Conditions -  °F | °C
As of 11:15 AM on Thursday 18 Dec 2014 (Local Time) from KEBG Reporting Station
Overcast Overcast  
Wind Chill: 72°   Ceiling: 1000
Heat Index: 72°   Visibility: 7mi
Dew Point: 65°   Wind: 5mph
Humidity: 78%   Direction: 250°WSW
Pressure: 30.07"   Gusts: NA
Location:  26.5735°N, 98.695°W
Report Text: KEBG 181715Z AUTO 25004KT 7SM OVC010 22/18 A3007 RMK AO2 T02200181
Loading
Personal Weather Stations






























Interactive Weather Map New forecast layout! Learn more

10-Day Weather Forecast

Advertisements
Track Severe Weather on mobile